createdAt,value
2023-01-22T00:02:06.693Z,6.95
2023-01-22T00:04:33.376Z,7.00
2023-01-22T00:07:00.011Z,6.99
2023-01-22T00:09:26.683Z,6.95
2023-01-22T00:11:53.373Z,6.97
2023-01-22T00:14:20.012Z,6.83
2023-01-22T00:16:47.380Z,6.82
2023-01-22T00:19:14.431Z,6.78
2023-01-22T00:21:41.041Z,6.78
2023-01-22T00:24:07.834Z,6.75
2023-01-22T00:26:34.583Z,6.73
2023-01-22T00:29:01.200Z,6.73
2023-01-22T00:31:28.104Z,6.74
2023-01-22T00:33:54.787Z,6.69
2023-01-22T00:36:23.324Z,6.64
2023-01-22T00:38:50.542Z,6.60
2023-01-22T00:41:18.504Z,6.59
2023-01-22T00:43:45.376Z,6.54
2023-01-22T00:46:13.373Z,6.51
2023-01-22T00:48:40.553Z,6.49
2023-01-22T00:51:13.025Z,6.51
2023-01-22T00:53:41.443Z,6.51
2023-01-22T00:56:08.421Z,6.44
2023-01-22T00:58:35.268Z,6.30
2023-01-22T01:01:02.820Z,6.17
2023-01-22T01:03:32.873Z,6.19
2023-01-22T01:06:04.434Z,6.16
2023-01-22T01:08:32.639Z,6.05
2023-01-22T01:11:00.570Z,6.08
2023-01-22T01:13:27.843Z,6.11
2023-01-22T01:16:01.678Z,6.10
2023-01-22T01:18:28.701Z,6.13
2023-01-22T01:20:56.476Z,6.01
2023-01-22T01:23:24.040Z,6.01
2023-01-22T01:25:50.765Z,5.96
2023-01-22T01:28:17.934Z,5.71
2023-01-22T01:30:45.134Z,5.70
2023-01-22T01:33:11.844Z,5.56
2023-01-22T01:35:38.481Z,5.44
2023-01-22T01:38:05.897Z,5.17
2023-01-22T01:40:32.844Z,5.28
2023-01-22T01:42:59.525Z,5.11
2023-01-22T01:45:26.210Z,5.09
2023-01-22T01:48:07.729Z,5.10
2023-01-22T01:50:34.942Z,5.12
2023-01-22T01:53:02.070Z,5.20
2023-01-22T01:55:30.139Z,5.09
2023-01-22T01:57:59.381Z,5.11
2023-01-22T02:00:28.546Z,4.71
2023-01-22T02:02:55.706Z,4.66
2023-01-22T02:05:22.764Z,4.55
2023-01-22T02:07:49.497Z,4.42
2023-01-22T02:10:16.430Z,4.52
2023-01-22T02:12:43.248Z,4.59
2023-01-22T02:15:10.456Z,4.39
2023-01-22T02:17:37.178Z,4.38
2023-01-22T02:20:04.057Z,4.18
2023-01-22T02:22:32.392Z,4.16
2023-01-22T02:25:00.409Z,4.08
2023-01-22T02:27:27.141Z,3.97
2023-01-22T02:29:53.944Z,4.02
2023-01-22T02:32:20.631Z,4.14
2023-01-22T02:34:47.335Z,4.26
2023-01-22T02:37:14.669Z,4.11
2023-01-22T02:39:41.577Z,4.17
2023-01-22T02:42:08.622Z,4.18
2023-01-22T02:44:36.445Z,4.23
2023-01-22T02:47:03.188Z,4.17
2023-01-22T02:49:29.973Z,4.12
2023-01-22T02:51:56.753Z,4.01
2023-01-22T02:54:24.346Z,4.04
2023-01-22T02:56:51.032Z,3.98
2023-01-22T02:59:17.836Z,3.96
2023-01-22T03:01:44.581Z,3.97
2023-01-22T03:04:11.339Z,3.94
2023-01-22T03:06:41.483Z,3.91
2023-01-22T03:09:08.984Z,3.49
2023-01-22T03:11:37.598Z,3.58
2023-01-22T03:14:30.433Z,3.71
2023-01-22T03:17:16.245Z,3.73
2023-01-22T03:20:01.591Z,3.72
2023-01-22T03:22:28.862Z,3.75
2023-01-22T03:24:58.761Z,3.57
2023-01-22T03:27:26.921Z,3.34
2023-01-22T03:29:54.230Z,3.38
2023-01-22T03:32:21.572Z,3.42
2023-01-22T03:34:48.574Z,3.51
2023-01-22T03:37:15.423Z,3.54
2023-01-22T03:39:44.665Z,3.63
2023-01-22T03:42:18.820Z,3.56
2023-01-22T03:44:45.572Z,3.48
2023-01-22T03:47:12.943Z,3.50
2023-01-22T03:49:40.113Z,3.43
2023-01-22T03:52:06.967Z,3.46
2023-01-22T03:54:33.741Z,3.44
2023-01-22T03:57:03.187Z,3.37
2023-01-22T03:59:36.978Z,3.21
2023-01-22T04:02:03.724Z,3.35
2023-01-22T04:04:34.327Z,3.44
2023-01-22T04:07:02.129Z,3.38
2023-01-22T04:09:28.829Z,3.45
2023-01-22T04:11:57.072Z,3.29
2023-01-22T04:14:23.703Z,3.44
2023-01-22T04:16:58.908Z,3.48
2023-01-22T04:19:45.858Z,3.32
2023-01-22T04:22:32.428Z,3.24
2023-01-22T04:24:59.352Z,3.24
2023-01-22T04:27:25.956Z,3.30
2023-01-22T04:29:54.820Z,3.36
2023-01-22T04:32:23.346Z,3.11
2023-01-22T04:34:57.383Z,3.17
2023-01-22T04:37:33.723Z,2.91
2023-01-22T04:40:00.437Z,2.81
2023-01-22T04:42:27.343Z,2.84
2023-01-22T04:44:54.204Z,2.87
2023-01-22T04:47:21.317Z,2.83
2023-01-22T04:49:47.999Z,2.94
2023-01-22T04:52:14.945Z,2.98
2023-01-22T04:54:42.509Z,3.04
2023-01-22T04:57:09.292Z,2.80
2023-01-22T04:59:35.973Z,2.93
2023-01-22T05:02:03.405Z,2.84
2023-01-22T05:04:32.197Z,2.88
2023-01-22T05:06:58.919Z,2.93
2023-01-22T05:09:26.211Z,2.90
2023-01-22T05:11:56.932Z,3.04
2023-01-22T05:14:24.555Z,2.92
2023-01-22T05:16:51.355Z,2.90
2023-01-22T05:19:17.995Z,2.97
2023-01-22T05:21:44.881Z,2.72
2023-01-22T05:24:15.790Z,2.67
2023-01-22T05:26:42.666Z,2.74
2023-01-22T05:29:27.142Z,2.56
2023-01-22T05:32:03.624Z,2.65
2023-01-22T05:34:33.661Z,2.75
2023-01-22T05:37:01.079Z,2.76
2023-01-22T05:39:30.297Z,2.45
2023-01-22T05:41:59.250Z,2.24
2023-01-22T05:44:26.252Z,2.15
2023-01-22T05:46:54.591Z,2.34
2023-01-22T05:49:59.713Z,2.48
2023-01-22T05:52:26.605Z,2.58
2023-01-22T05:54:53.356Z,2.59
2023-01-22T05:57:20.137Z,2.44
2023-01-22T05:59:46.802Z,2.43
2023-01-22T06:02:14.523Z,2.22
2023-01-22T06:04:43.729Z,2.18
2023-01-22T06:07:24.137Z,2.34
2023-01-22T06:09:51.010Z,2.40
2023-01-22T06:12:18.562Z,2.26
2023-01-22T06:14:46.596Z,2.21
2023-01-22T06:17:13.511Z,2.22
2023-01-22T06:19:46.744Z,2.10
2023-01-22T06:22:15.704Z,2.18
2023-01-22T06:24:50.328Z,2.09
2023-01-22T06:27:18.678Z,1.78
2023-01-22T06:30:05.851Z,1.88
2023-01-22T06:32:32.620Z,2.00
2023-01-22T06:35:00.199Z,1.87
2023-01-22T06:37:28.161Z,1.86
2023-01-22T06:39:54.788Z,1.95
2023-01-22T06:42:25.946Z,1.84
2023-01-22T06:44:52.956Z,1.65
2023-01-22T06:47:22.190Z,1.90
2023-01-22T06:49:48.985Z,2.12
2023-01-22T06:52:15.885Z,2.11
2023-01-22T06:54:42.607Z,2.00
2023-01-22T06:57:09.914Z,2.02
2023-01-22T06:59:38.623Z,1.90
2023-01-22T07:02:05.244Z,1.77
2023-01-22T07:04:31.906Z,1.84
2023-01-22T07:06:58.506Z,1.68
2023-01-22T07:09:25.215Z,1.55
2023-01-22T07:11:51.801Z,1.84
2023-01-22T07:14:28.871Z,1.99
2023-01-22T07:17:02.577Z,2.07
2023-01-22T07:19:29.220Z,2.03
2023-01-22T07:21:55.867Z,1.99
2023-01-22T07:24:22.736Z,1.91
2023-01-22T07:26:49.538Z,2.00
2023-01-22T07:29:16.266Z,1.96
2023-01-22T07:31:43.092Z,1.97
2023-01-22T07:34:10.821Z,2.14
2023-01-22T07:36:37.573Z,2.14
2023-01-22T07:39:05.607Z,2.08
2023-01-22T07:41:32.506Z,2.18
2023-01-22T07:44:00.487Z,1.93
2023-01-22T07:46:27.773Z,1.90
2023-01-22T07:48:54.408Z,2.00
2023-01-22T07:51:21.174Z,2.15
2023-01-22T07:53:47.905Z,1.89
2023-01-22T07:56:14.648Z,1.91
2023-01-22T07:58:41.457Z,2.24
2023-01-22T08:01:08.419Z,2.35
2023-01-22T08:03:35.148Z,2.54
2023-01-22T08:06:01.962Z,2.74
2023-01-22T08:08:28.722Z,2.90
2023-01-22T08:10:58.247Z,3.05
2023-01-22T08:13:24.870Z,3.14
2023-01-22T08:15:51.516Z,3.23
2023-01-22T08:18:20.028Z,3.32
2023-01-22T08:20:48.098Z,3.47
2023-01-22T08:23:14.913Z,3.63
2023-01-22T08:25:41.663Z,3.52
2023-01-22T08:28:08.314Z,3.65
2023-01-22T08:30:45.296Z,3.90
2023-01-22T08:33:13.013Z,4.12
2023-01-22T08:35:39.975Z,4.20
2023-01-22T08:38:06.778Z,4.46
2023-01-22T08:40:33.447Z,4.53
2023-01-22T08:43:00.134Z,4.64
2023-01-22T08:45:26.812Z,4.81
2023-01-22T08:47:58.119Z,4.94
2023-01-22T08:50:24.863Z,5.05
2023-01-22T08:52:51.492Z,5.23
2023-01-22T08:55:18.210Z,5.34
2023-01-22T08:57:44.827Z,5.23
2023-01-22T09:00:11.681Z,5.33
2023-01-22T09:02:38.327Z,5.10
2023-01-22T09:05:05.152Z,5.21
2023-01-22T09:07:31.747Z,5.14
2023-01-22T09:09:58.427Z,5.01
2023-01-22T09:12:25.213Z,5.02
2023-01-22T09:14:52.076Z,5.06
2023-01-22T09:17:18.736Z,4.85
2023-01-22T09:19:45.413Z,5.10
2023-01-22T09:22:12.056Z,5.10
2023-01-22T09:24:38.719Z,5.28
2023-01-22T09:27:05.381Z,5.35
2023-01-22T09:29:32.079Z,5.24
2023-01-22T09:31:58.956Z,5.11
2023-01-22T09:34:25.655Z,5.08
2023-01-22T09:36:52.336Z,5.19
2023-01-22T09:39:20.492Z,5.39
2023-01-22T09:41:52.921Z,5.54
2023-01-22T09:44:22.791Z,5.75
2023-01-22T09:46:52.942Z,5.93
2023-01-22T09:49:35.879Z,5.84
2023-01-22T09:52:05.336Z,6.11
2023-01-22T09:54:32.958Z,6.01
2023-01-22T09:57:02.029Z,6.12
2023-01-22T09:59:33.006Z,5.97
2023-01-22T10:02:01.879Z,5.82
2023-01-22T10:04:40.525Z,5.57
2023-01-22T10:07:17.195Z,5.69
2023-01-22T10:09:49.713Z,5.87
2023-01-22T10:12:16.431Z,5.97
2023-01-22T10:14:43.909Z,5.85
2023-01-22T10:17:17.406Z,5.88
2023-01-22T10:19:45.611Z,6.01
2023-01-22T10:22:18.262Z,6.21
2023-01-22T10:24:44.995Z,6.21
2023-01-22T10:27:13.168Z,6.25
2023-01-22T10:29:40.131Z,6.33
2023-01-22T10:32:17.614Z,6.61
2023-01-22T10:34:44.258Z,6.67
2023-01-22T10:37:15.212Z,6.81
2023-01-22T10:39:43.065Z,6.94
2023-01-22T10:42:19.757Z,7.12
2023-01-22T10:44:46.889Z,7.05
2023-01-22T10:47:21.202Z,7.12
2023-01-22T10:49:53.050Z,7.41
2023-01-22T10:52:24.372Z,7.42
2023-01-22T10:54:53.927Z,7.53
2023-01-22T10:57:28.235Z,7.78
2023-01-22T11:00:13.656Z,7.75
2023-01-22T11:02:44.846Z,7.80
2023-01-22T11:05:17.479Z,7.78
2023-01-22T11:07:45.930Z,7.84
2023-01-22T11:10:18.784Z,7.92
2023-01-22T11:12:57.532Z,8.35
2023-01-22T11:15:25.397Z,8.49
2023-01-22T11:17:54.310Z,8.75
2023-01-22T11:20:33.236Z,8.91
2023-01-22T11:23:03.562Z,8.90
2023-01-22T11:25:38.040Z,9.20
2023-01-22T11:28:27.747Z,9.37
2023-01-22T11:31:09.085Z,9.47
2023-01-22T11:33:45.415Z,9.67
2023-01-22T11:36:16.563Z,9.76
2023-01-22T11:38:43.313Z,9.94
2023-01-22T11:41:18.554Z,10.10
2023-01-22T11:43:50.031Z,10.23
2023-01-22T11:46:35.087Z,9.94
2023-01-22T11:49:22.340Z,9.71
2023-01-22T11:51:49.072Z,9.84
2023-01-22T11:54:34.031Z,10.00
2023-01-22T11:57:00.704Z,10.18
2023-01-22T11:59:27.271Z,10.25
2023-01-22T12:02:02.634Z,10.20
2023-01-22T12:04:35.366Z,10.51
2023-01-22T12:07:07.838Z,10.69
2023-01-22T12:09:34.483Z,10.62
2023-01-22T12:12:19.104Z,10.67
2023-01-22T12:14:51.537Z,10.75
2023-01-22T12:17:21.074Z,10.77
2023-01-22T12:19:59.955Z,10.68
2023-01-22T12:22:26.635Z,10.97
2023-01-22T12:25:12.106Z,11.08
2023-01-22T12:27:47.459Z,11.19
2023-01-22T12:30:14.072Z,11.21
2023-01-22T12:32:43.120Z,11.32
2023-01-22T12:35:30.299Z,11.40
2023-01-22T12:38:02.937Z,11.23
2023-01-22T12:40:29.663Z,11.17
2023-01-22T12:43:00.844Z,11.09
2023-01-22T12:45:37.840Z,11.23
2023-01-22T12:48:04.483Z,11.43
2023-01-22T12:50:31.140Z,11.55
2023-01-22T12:52:59.438Z,11.51
2023-01-22T12:55:29.498Z,11.43
2023-01-22T12:57:56.663Z,11.55
2023-01-22T13:00:39.059Z,11.64
2023-01-22T13:03:31.114Z,11.80
2023-01-22T13:05:58.844Z,11.95
2023-01-22T13:08:45.677Z,11.92
2023-01-22T13:11:14.184Z,11.71
2023-01-22T13:13:44.935Z,11.90
2023-01-22T13:16:19.771Z,11.96
2023-01-22T13:18:49.009Z,12.12
2023-01-22T13:21:17.485Z,12.21
2023-01-22T13:23:45.917Z,12.25
2023-01-22T13:26:26.655Z,12.34
2023-01-22T13:28:59.048Z,12.42
2023-01-22T13:31:26.018Z,12.48
2023-01-22T13:33:57.294Z,12.54
2023-01-22T13:36:24.724Z,12.54
2023-01-22T13:38:55.784Z,12.43
2023-01-22T13:41:26.564Z,12.47
2023-01-22T13:43:53.254Z,12.31
2023-01-22T13:46:19.976Z,12.26
2023-01-22T13:48:46.806Z,12.30
2023-01-22T13:51:18.476Z,12.31
2023-01-22T13:53:55.134Z,12.24
2023-01-22T13:56:23.154Z,12.18
2023-01-22T13:58:50.381Z,12.12
2023-01-22T14:01:27.863Z,12.19
2023-01-22T14:04:20.887Z,12.09
2023-01-22T14:06:49.590Z,12.04
2023-01-22T14:09:33.327Z,11.93
2023-01-22T14:12:00.590Z,11.97
2023-01-22T14:14:27.299Z,11.94
2023-01-22T14:16:54.042Z,11.96
2023-01-22T14:19:20.847Z,11.98
2023-01-22T14:21:47.558Z,11.97
2023-01-22T14:24:14.235Z,11.89
2023-01-22T14:26:41.114Z,11.85
2023-01-22T14:29:07.922Z,11.90
2023-01-22T14:31:34.675Z,11.91
2023-01-22T14:34:01.356Z,11.94
2023-01-22T14:36:28.034Z,11.99
2023-01-22T14:38:55.414Z,11.96
2023-01-22T14:41:22.129Z,11.97
2023-01-22T14:43:48.818Z,11.97
2023-01-22T14:46:15.424Z,11.91
2023-01-22T14:48:42.070Z,11.90
2023-01-22T14:51:10.332Z,11.92
2023-01-22T14:53:37.597Z,11.80
2023-01-22T14:56:04.995Z,11.78
2023-01-22T14:58:31.847Z,11.74
2023-01-22T15:00:58.587Z,11.72
2023-01-22T15:03:25.368Z,11.61
2023-01-22T15:05:52.185Z,11.68
2023-01-22T15:08:18.932Z,11.66
2023-01-22T15:10:45.529Z,11.74
2023-01-22T15:13:12.178Z,11.79
2023-01-22T15:15:38.756Z,11.78
2023-01-22T15:18:05.435Z,11.76
2023-01-22T15:20:32.144Z,11.72
2023-01-22T15:22:58.889Z,11.63
2023-01-22T15:25:27.343Z,11.57
2023-01-22T15:27:54.050Z,11.67
2023-01-22T15:30:21.020Z,11.67
2023-01-22T15:32:48.056Z,11.65
2023-01-22T15:35:14.898Z,11.55
2023-01-22T15:37:41.638Z,11.59
2023-01-22T15:40:10.236Z,11.59
2023-01-22T15:42:37.097Z,11.54
2023-01-22T15:45:04.848Z,11.57
2023-01-22T15:47:31.573Z,11.62
2023-01-22T15:49:58.259Z,11.53
2023-01-22T15:52:24.939Z,11.56
2023-01-22T15:54:53.499Z,11.62
2023-01-22T15:57:20.302Z,11.63
2023-01-22T15:59:46.889Z,11.61
2023-01-22T16:02:13.622Z,11.65
2023-01-22T16:04:40.276Z,11.70
2023-01-22T16:07:06.917Z,11.72
2023-01-22T16:09:33.752Z,11.75
2023-01-22T16:12:00.730Z,11.74
2023-01-22T16:14:29.223Z,11.77
2023-01-22T16:16:55.971Z,11.75
2023-01-22T16:19:22.676Z,11.74
2023-01-22T16:21:49.433Z,11.72
2023-01-22T16:24:16.095Z,11.73
2023-01-22T16:26:42.804Z,11.68
2023-01-22T16:29:10.225Z,11.69
2023-01-22T16:31:37.108Z,11.62
2023-01-22T16:34:10.240Z,11.58
2023-01-22T16:36:37.426Z,11.55
2023-01-22T16:39:04.957Z,11.54
2023-01-22T16:41:33.010Z,11.52
2023-01-22T16:44:01.919Z,11.40
2023-01-22T16:46:29.777Z,11.30
2023-01-22T16:49:01.033Z,11.30
2023-01-22T16:51:29.071Z,11.18
2023-01-22T16:53:55.887Z,11.18
2023-01-22T16:56:22.818Z,11.13
2023-01-22T16:58:49.505Z,11.12
2023-01-22T17:01:16.493Z,11.09
2023-01-22T17:03:43.562Z,11.05
2023-01-22T17:06:20.833Z,11.03
2023-01-22T17:08:47.876Z,11.02
2023-01-22T17:11:15.745Z,10.96
2023-01-22T17:13:42.430Z,10.96
2023-01-22T17:16:09.388Z,10.94
2023-01-22T17:18:36.116Z,10.93
2023-01-22T17:21:05.799Z,10.89
2023-01-22T17:23:33.672Z,10.86
2023-01-22T17:26:00.375Z,10.85
2023-01-22T17:28:27.082Z,10.84
2023-01-22T17:30:53.809Z,10.82
2023-01-22T17:33:20.980Z,10.79
2023-01-22T17:35:47.733Z,10.78
2023-01-22T17:38:14.706Z,10.77
2023-01-22T17:40:43.245Z,10.78
2023-01-22T17:43:09.954Z,10.77
2023-01-22T17:45:38.955Z,10.71
2023-01-22T17:48:05.861Z,10.70
2023-01-22T17:50:32.542Z,10.71
2023-01-22T17:52:59.249Z,10.70
2023-01-22T17:55:28.557Z,10.69
2023-01-22T17:57:55.892Z,10.67
2023-01-22T18:00:22.992Z,10.67
2023-01-22T18:02:50.261Z,10.67
2023-01-22T18:05:17.329Z,10.67
2023-01-22T18:07:44.281Z,10.67
2023-01-22T18:10:11.373Z,10.65
2023-01-22T18:12:38.099Z,10.63
2023-01-22T18:15:05.024Z,10.62
2023-01-22T18:17:31.661Z,10.62
2023-01-22T18:19:58.410Z,10.62
2023-01-22T18:22:25.403Z,10.61
2023-01-22T18:24:52.000Z,10.56
2023-01-22T18:27:18.720Z,10.49
2023-01-22T18:29:45.433Z,10.36
2023-01-22T18:32:12.077Z,10.35
2023-01-22T18:34:38.725Z,10.26
2023-01-22T18:37:05.465Z,10.22
2023-01-22T18:39:32.065Z,10.19
2023-01-22T18:41:58.845Z,10.19
2023-01-22T18:44:27.720Z,10.12
2023-01-22T18:46:57.297Z,10.09
2023-01-22T18:49:24.011Z,10.08
2023-01-22T18:51:50.689Z,10.07
2023-01-22T18:54:17.749Z,10.09
2023-01-22T18:56:44.519Z,10.08
2023-01-22T18:59:13.080Z,10.11
2023-01-22T19:01:40.439Z,9.99
2023-01-22T19:04:08.060Z,10.00
2023-01-22T19:06:37.330Z,9.94
2023-01-22T19:09:04.069Z,9.89
2023-01-22T19:11:31.755Z,9.80
2023-01-22T19:13:59.670Z,9.67
2023-01-22T19:16:28.226Z,9.64
2023-01-22T19:18:59.420Z,9.62
2023-01-22T19:21:26.690Z,9.33
2023-01-22T19:23:55.093Z,9.15
2023-01-22T19:26:39.886Z,8.94
2023-01-22T19:29:08.185Z,8.65
2023-01-22T19:31:36.171Z,8.64
2023-01-22T19:34:03.423Z,8.52
2023-01-22T19:36:31.738Z,8.39
2023-01-22T19:38:59.315Z,8.28
2023-01-22T19:41:26.660Z,8.22
2023-01-22T19:43:58.125Z,8.14
2023-01-22T19:46:26.162Z,8.15
2023-01-22T19:48:53.379Z,8.02
2023-01-22T19:51:22.233Z,7.67
2023-01-22T19:53:49.141Z,7.51
2023-01-22T19:56:17.951Z,7.57
2023-01-22T19:58:45.286Z,7.57
2023-01-22T20:01:12.668Z,7.67
2023-01-22T20:03:39.441Z,7.63
2023-01-22T20:06:06.947Z,7.47
2023-01-22T20:08:36.350Z,7.63
2023-01-22T20:11:03.881Z,7.52
2023-01-22T20:13:30.827Z,7.74
2023-01-22T20:15:57.588Z,7.52
2023-01-22T20:18:24.231Z,7.25
2023-01-22T20:20:54.776Z,7.39
2023-01-22T20:23:22.280Z,7.23
2023-01-22T20:25:49.039Z,7.03
2023-01-22T20:28:16.260Z,7.19
2023-01-22T20:30:43.697Z,7.19
2023-01-22T20:33:11.639Z,7.03
2023-01-22T20:35:44.376Z,7.03
2023-01-22T20:38:10.986Z,7.04
2023-01-22T20:40:39.069Z,6.87
2023-01-22T20:43:06.813Z,6.82
2023-01-22T20:45:33.520Z,6.88
2023-01-22T20:48:00.176Z,6.82
2023-01-22T20:50:26.916Z,6.89
2023-01-22T20:52:53.738Z,6.74
2023-01-22T20:55:21.028Z,6.68
2023-01-22T20:57:47.740Z,6.45
2023-01-22T21:00:14.592Z,6.40
2023-01-22T21:02:41.348Z,6.37
2023-01-22T21:05:08.369Z,6.48
2023-01-22T21:07:35.229Z,6.32
2023-01-22T21:10:02.074Z,6.36
2023-01-22T21:12:28.792Z,6.52
2023-01-22T21:14:55.545Z,6.14
2023-01-22T21:17:22.220Z,6.14
2023-01-22T21:19:48.945Z,6.08
2023-01-22T21:22:15.630Z,5.72
2023-01-22T21:24:42.375Z,6.00
2023-01-22T21:27:09.149Z,5.85
2023-01-22T21:29:35.917Z,6.04
2023-01-22T21:32:03.113Z,6.14
2023-01-22T21:34:30.228Z,6.13
2023-01-22T21:36:58.825Z,5.88
2023-01-22T21:39:28.289Z,5.66
2023-01-22T21:42:15.513Z,5.71
2023-01-22T21:45:01.135Z,5.65
2023-01-22T21:47:28.011Z,5.40
2023-01-22T21:49:54.808Z,5.61
2023-01-22T21:52:21.540Z,5.58
2023-01-22T21:54:48.192Z,5.48
2023-01-22T21:57:15.787Z,5.63
2023-01-22T21:59:43.161Z,5.72
2023-01-22T22:02:19.633Z,5.50
2023-01-22T22:04:46.551Z,5.60
2023-01-22T22:07:13.215Z,5.34
2023-01-22T22:09:40.027Z,5.21
2023-01-22T22:12:06.973Z,5.33
2023-01-22T22:14:33.657Z,5.28
2023-01-22T22:17:00.636Z,5.54
2023-01-22T22:19:28.958Z,5.55
2023-01-22T22:21:57.764Z,5.68
2023-01-22T22:24:24.460Z,5.67
2023-01-22T22:26:51.110Z,5.63
2023-01-22T22:29:17.870Z,5.76
2023-01-22T22:31:44.596Z,5.67
2023-01-22T22:34:11.336Z,5.53
2023-01-22T22:36:37.958Z,5.43
2023-01-22T22:39:06.692Z,5.50
2023-01-22T22:41:34.399Z,5.49
2023-01-22T22:44:01.036Z,5.56
2023-01-22T22:46:32.254Z,5.62
2023-01-22T22:49:00.322Z,5.50
2023-01-22T22:51:29.124Z,5.23
2023-01-22T22:53:57.215Z,5.07
2023-01-22T22:56:23.996Z,5.12
2023-01-22T22:58:51.598Z,4.96
2023-01-22T23:01:19.795Z,4.97
2023-01-22T23:03:46.778Z,4.84
2023-01-22T23:06:15.166Z,4.63
2023-01-22T23:08:43.254Z,4.71
2023-01-22T23:11:11.210Z,4.86
2023-01-22T23:13:38.522Z,5.05
2023-01-22T23:16:07.348Z,5.09
2023-01-22T23:18:34.541Z,5.29
2023-01-22T23:21:08.466Z,5.34
2023-01-22T23:23:35.714Z,5.46
2023-01-22T23:26:03.078Z,5.48
2023-01-22T23:28:29.721Z,5.58
2023-01-22T23:30:56.472Z,5.64
2023-01-22T23:33:23.239Z,5.38
2023-01-22T23:35:51.346Z,5.50
2023-01-22T23:38:18.038Z,5.47
2023-01-22T23:40:44.699Z,5.27
2023-01-22T23:43:11.429Z,5.39
2023-01-22T23:45:38.687Z,5.33
2023-01-22T23:48:05.453Z,5.42
2023-01-22T23:50:32.151Z,5.24
2023-01-22T23:52:58.857Z,5.32
2023-01-22T23:55:25.577Z,5.07
2023-01-22T23:57:53.339Z,5.11
